sensor_id;sensor_type;location;lat;lon;timestamp;P1;durP1;ratioP1;P2;durP2;ratioP2
37845;SDS011;23686;49.828;8.702;2023-02-15T00:01:47;36.72;;;20.50;;
37845;SDS011;23686;49.828;8.702;2023-02-15T00:04:14;34.25;;;18.92;;
37845;SDS011;23686;49.828;8.702;2023-02-15T00:06:41;34.60;;;18.17;;
37845;SDS011;23686;49.828;8.702;2023-02-15T00:09:08;34.75;;;19.33;;
37845;SDS011;23686;49.828;8.702;2023-02-15T00:11:34;37.15;;;20.23;;
37845;SDS011;23686;49.828;8.702;2023-02-15T00:14:14;34.72;;;19.52;;
37845;SDS011;23686;49.828;8.702;2023-02-15T00:16:44;37.60;;;18.98;;
37845;SDS011;23686;49.828;8.702;2023-02-15T00:19:11;29.70;;;18.77;;
37845;SDS011;23686;49.828;8.702;2023-02-15T00:21:38;32.33;;;18.70;;
37845;SDS011;23686;49.828;8.702;2023-02-15T00:24:05;32.22;;;19.55;;
37845;SDS011;23686;49.828;8.702;2023-02-15T00:26:32;33.70;;;20.07;;
37845;SDS011;23686;49.828;8.702;2023-02-15T00:28:58;32.75;;;17.35;;
37845;SDS011;23686;49.828;8.702;2023-02-15T00:31:24;31.15;;;18.05;;
37845;SDS011;23686;49.828;8.702;2023-02-15T00:33:50;34.72;;;18.50;;
37845;SDS011;23686;49.828;8.702;2023-02-15T00:36:15;32.33;;;18.17;;
37845;SDS011;23686;49.828;8.702;2023-02-15T00:38:41;33.22;;;19.23;;
37845;SDS011;23686;49.828;8.702;2023-02-15T00:41:07;32.30;;;19.77;;
37845;SDS011;23686;49.828;8.702;2023-02-15T00:43:34;34.85;;;18.20;;
37845;SDS011;23686;49.828;8.702;2023-02-15T00:46:00;37.55;;;19.25;;
37845;SDS011;23686;49.828;8.702;2023-02-15T00:48:26;33.65;;;19.98;;
37845;SDS011;23686;49.828;8.702;2023-02-15T00:50:53;32.03;;;18.67;;
37845;SDS011;23686;49.828;8.702;2023-02-15T00:53:20;32.60;;;19.30;;
37845;SDS011;23686;49.828;8.702;2023-02-15T00:55:46;34.50;;;19.80;;
37845;SDS011;23686;49.828;8.702;2023-02-15T00:58:12;32.40;;;18.90;;
37845;SDS011;23686;49.828;8.702;2023-02-15T01:00:38;32.22;;;18.55;;
37845;SDS011;23686;49.828;8.702;2023-02-15T01:03:06;32.28;;;18.55;;
37845;SDS011;23686;49.828;8.702;2023-02-15T01:05:32;31.80;;;17.70;;
37845;SDS011;23686;49.828;8.702;2023-02-15T01:07:57;34.70;;;20.02;;
37845;SDS011;23686;49.828;8.702;2023-02-15T01:10:24;31.83;;;18.50;;
37845;SDS011;23686;49.828;8.702;2023-02-15T01:12:50;35.28;;;19.50;;
37845;SDS011;23686;49.828;8.702;2023-02-15T01:15:16;32.78;;;19.15;;
37845;SDS011;23686;49.828;8.702;2023-02-15T01:17:42;35.25;;;19.70;;
37845;SDS011;23686;49.828;8.702;2023-02-15T01:20:10;33.00;;;19.48;;
37845;SDS011;23686;49.828;8.702;2023-02-15T01:22:36;39.65;;;20.38;;
37845;SDS011;23686;49.828;8.702;2023-02-15T01:25:02;34.42;;;19.33;;
37845;SDS011;23686;49.828;8.702;2023-02-15T01:27:28;35.80;;;20.45;;
37845;SDS011;23686;49.828;8.702;2023-02-15T01:29:55;33.35;;;19.88;;
37845;SDS011;23686;49.828;8.702;2023-02-15T01:32:21;35.22;;;19.90;;
37845;SDS011;23686;49.828;8.702;2023-02-15T01:34:46;32.92;;;18.90;;
37845;SDS011;23686;49.828;8.702;2023-02-15T01:37:12;34.58;;;18.45;;
37845;SDS011;23686;49.828;8.702;2023-02-15T01:39:37;36.58;;;20.58;;
37845;SDS011;23686;49.828;8.702;2023-02-15T01:42:03;33.88;;;19.73;;
37845;SDS011;23686;49.828;8.702;2023-02-15T01:47:16;36.22;;;19.02;;
37845;SDS011;23686;49.828;8.702;2023-02-15T01:49:45;34.03;;;19.92;;
37845;SDS011;23686;49.828;8.702;2023-02-15T01:52:12;33.38;;;19.58;;
37845;SDS011;23686;49.828;8.702;2023-02-15T01:54:40;32.53;;;18.98;;
37845;SDS011;23686;49.828;8.702;2023-02-15T01:57:09;34.97;;;19.95;;
37845;SDS011;23686;49.828;8.702;2023-02-15T01:59:38;35.72;;;19.73;;
37845;SDS011;23686;49.828;8.702;2023-02-15T02:02:07;36.03;;;19.92;;
37845;SDS011;23686;49.828;8.702;2023-02-15T02:07:36;35.08;;;19.85;;
37845;SDS011;23686;49.828;8.702;2023-02-15T02:10:05;35.28;;;19.92;;
37845;SDS011;23686;49.828;8.702;2023-02-15T02:12:34;35.35;;;19.63;;
37845;SDS011;23686;49.828;8.702;2023-02-15T02:15:02;32.67;;;19.13;;
37845;SDS011;23686;49.828;8.702;2023-02-15T02:20:31;32.28;;;17.73;;
37845;SDS011;23686;49.828;8.702;2023-02-15T02:23:38;29.55;;;17.60;;
37845;SDS011;23686;49.828;8.702;2023-02-15T02:34:26;30.65;;;18.13;;
37845;SDS011;23686;49.828;8.702;2023-02-15T02:37:43;30.40;;;17.35;;
37845;SDS011;23686;49.828;8.702;2023-02-15T02:39:58;32.70;;;18.30;;
37845;SDS011;23686;49.828;8.702;2023-02-15T02:42:42;34.28;;;18.45;;
37845;SDS011;23686;49.828;8.702;2023-02-15T02:45:28;34.45;;;18.13;;
37845;SDS011;23686;49.828;8.702;2023-02-15T02:48:08;30.60;;;17.98;;
37845;SDS011;23686;49.828;8.702;2023-02-15T02:50:38;28.50;;;17.25;;
37845;SDS011;23686;49.828;8.702;2023-02-15T02:53:05;32.80;;;18.90;;
37845;SDS011;23686;49.828;8.702;2023-02-15T02:55:35;29.58;;;17.90;;
37845;SDS011;23686;49.828;8.702;2023-02-15T02:58:06;30.23;;;17.38;;
37845;SDS011;23686;49.828;8.702;2023-02-15T03:00:44;31.75;;;18.15;;
37845;SDS011;23686;49.828;8.702;2023-02-15T03:05:52;31.48;;;19.17;;
37845;SDS011;23686;49.828;8.702;2023-02-15T03:08:19;31.60;;;17.58;;
37845;SDS011;23686;49.828;8.702;2023-02-15T03:10:50;32.05;;;17.98;;
37845;SDS011;23686;49.828;8.702;2023-02-15T03:13:18;34.03;;;18.67;;
37845;SDS011;23686;49.828;8.702;2023-02-15T03:15:44;29.40;;;18.02;;
37845;SDS011;23686;49.828;8.702;2023-02-15T03:18:37;29.65;;;18.63;;
37845;SDS011;23686;49.828;8.702;2023-02-15T03:21:06;29.90;;;17.60;;
37845;SDS011;23686;49.828;8.702;2023-02-15T03:23:34;30.93;;;17.50;;
37845;SDS011;23686;49.828;8.702;2023-02-15T03:26:03;30.15;;;17.92;;
37845;SDS011;23686;49.828;8.702;2023-02-15T03:31:00;35.50;;;19.05;;
37845;SDS011;23686;49.828;8.702;2023-02-15T03:33:29;33.80;;;19.33;;
37845;SDS011;23686;49.828;8.702;2023-02-15T03:38:34;36.78;;;18.55;;
37845;SDS011;23686;49.828;8.702;2023-02-15T03:41:07;32.05;;;18.55;;
37845;SDS011;23686;49.828;8.702;2023-02-15T03:43:49;36.03;;;18.55;;
37845;SDS011;23686;49.828;8.702;2023-02-15T03:49:04;32.45;;;19.20;;
37845;SDS011;23686;49.828;8.702;2023-02-15T03:51:32;38.70;;;18.65;;
37845;SDS011;23686;49.828;8.702;2023-02-15T04:03:03;36.17;;;18.55;;
37845;SDS011;23686;49.828;8.702;2023-02-15T04:05:39;35.92;;;19.98;;
37845;SDS011;23686;49.828;8.702;2023-02-15T04:08:05;32.65;;;18.15;;
37845;SDS011;23686;49.828;8.702;2023-02-15T04:10:31;34.75;;;18.88;;
37845;SDS011;23686;49.828;8.702;2023-02-15T04:13:15;33.65;;;17.63;;
37845;SDS011;23686;49.828;8.702;2023-02-15T04:15:41;35.58;;;19.00;;
37845;SDS011;23686;49.828;8.702;2023-02-15T04:18:24;33.08;;;18.63;;
37845;SDS011;23686;49.828;8.702;2023-02-15T04:21:09;30.15;;;17.02;;
37845;SDS011;23686;49.828;8.702;2023-02-15T04:23:53;30.20;;;16.45;;
37845;SDS011;23686;49.828;8.702;2023-02-15T04:26:37;26.80;;;15.52;;
37845;SDS011;23686;49.828;8.702;2023-02-15T04:29:03;31.15;;;17.15;;
37845;SDS011;23686;49.828;8.702;2023-02-15T04:31:28;34.72;;;18.45;;
37845;SDS011;23686;49.828;8.702;2023-02-15T04:33:54;24.67;;;16.33;;
37845;SDS011;23686;49.828;8.702;2023-02-15T04:36:19;28.90;;;16.45;;
37845;SDS011;23686;49.828;8.702;2023-02-15T04:38:45;31.25;;;17.13;;
37845;SDS011;23686;49.828;8.702;2023-02-15T04:41:10;30.35;;;17.65;;
37845;SDS011;23686;49.828;8.702;2023-02-15T04:43:37;29.50;;;17.33;;
37845;SDS011;23686;49.828;8.702;2023-02-15T04:46:03;29.45;;;18.33;;
37845;SDS011;23686;49.828;8.702;2023-02-15T04:48:29;32.20;;;17.08;;
37845;SDS011;23686;49.828;8.702;2023-02-15T04:50:55;29.35;;;16.38;;
37845;SDS011;23686;49.828;8.702;2023-02-15T04:53:20;21.50;;;14.20;;
37845;SDS011;23686;49.828;8.702;2023-02-15T04:55:46;24.77;;;14.38;;
37845;SDS011;23686;49.828;8.702;2023-02-15T04:58:11;23.92;;;15.07;;
37845;SDS011;23686;49.828;8.702;2023-02-15T05:00:37;24.85;;;14.07;;
37845;SDS011;23686;49.828;8.702;2023-02-15T05:03:02;27.02;;;16.13;;
37845;SDS011;23686;49.828;8.702;2023-02-15T05:05:28;24.80;;;14.18;;
37845;SDS011;23686;49.828;8.702;2023-02-15T05:07:54;24.77;;;14.15;;
37845;SDS011;23686;49.828;8.702;2023-02-15T05:10:19;22.10;;;14.52;;
37845;SDS011;23686;49.828;8.702;2023-02-15T05:12:45;23.23;;;14.60;;
37845;SDS011;23686;49.828;8.702;2023-02-15T05:15:11;21.95;;;13.95;;
37845;SDS011;23686;49.828;8.702;2023-02-15T05:17:36;23.48;;;14.32;;
37845;SDS011;23686;49.828;8.702;2023-02-15T05:20:02;26.40;;;14.70;;
37845;SDS011;23686;49.828;8.702;2023-02-15T05:22:28;24.95;;;14.32;;
37845;SDS011;23686;49.828;8.702;2023-02-15T05:24:53;23.15;;;13.98;;
37845;SDS011;23686;49.828;8.702;2023-02-15T05:27:38;24.45;;;14.85;;
37845;SDS011;23686;49.828;8.702;2023-02-15T05:30:22;25.10;;;14.60;;
37845;SDS011;23686;49.828;8.702;2023-02-15T05:32:47;24.30;;;15.20;;
37845;SDS011;23686;49.828;8.702;2023-02-15T05:35:14;23.42;;;14.18;;
37845;SDS011;23686;49.828;8.702;2023-02-15T05:37:40;26.42;;;16.08;;
37845;SDS011;23686;49.828;8.702;2023-02-15T05:40:07;24.33;;;15.02;;
37845;SDS011;23686;49.828;8.702;2023-02-15T05:42:33;25.08;;;15.35;;
37845;SDS011;23686;49.828;8.702;2023-02-15T05:44:58;26.98;;;15.38;;
37845;SDS011;23686;49.828;8.702;2023-02-15T05:47:24;28.10;;;16.38;;
37845;SDS011;23686;49.828;8.702;2023-02-15T05:49:49;26.25;;;15.38;;
37845;SDS011;23686;49.828;8.702;2023-02-15T05:52:15;25.15;;;15.07;;
37845;SDS011;23686;49.828;8.702;2023-02-15T05:54:40;24.70;;;15.20;;
37845;SDS011;23686;49.828;8.702;2023-02-15T05:57:06;25.08;;;15.27;;
37845;SDS011;23686;49.828;8.702;2023-02-15T05:59:31;26.25;;;14.85;;
37845;SDS011;23686;49.828;8.702;2023-02-15T06:01:57;23.20;;;14.55;;
37845;SDS011;23686;49.828;8.702;2023-02-15T06:04:22;28.23;;;15.60;;
37845;SDS011;23686;49.828;8.702;2023-02-15T06:06:48;26.52;;;16.20;;
37845;SDS011;23686;49.828;8.702;2023-02-15T06:09:14;24.73;;;15.30;;
37845;SDS011;23686;49.828;8.702;2023-02-15T06:11:39;34.45;;;22.75;;
37845;SDS011;23686;49.828;8.702;2023-02-15T06:14:05;24.27;;;14.98;;
37845;SDS011;23686;49.828;8.702;2023-02-15T06:16:30;24.45;;;15.77;;
37845;SDS011;23686;49.828;8.702;2023-02-15T06:18:56;24.52;;;14.18;;
37845;SDS011;23686;49.828;8.702;2023-02-15T06:21:23;25.80;;;15.52;;
37845;SDS011;23686;49.828;8.702;2023-02-15T06:23:49;23.55;;;14.60;;
37845;SDS011;23686;49.828;8.702;2023-02-15T06:26:14;24.92;;;15.27;;
37845;SDS011;23686;49.828;8.702;2023-02-15T06:28:40;23.13;;;15.15;;
37845;SDS011;23686;49.828;8.702;2023-02-15T06:31:06;21.85;;;13.65;;
37845;SDS011;23686;49.828;8.702;2023-02-15T06:33:31;24.77;;;15.25;;
37845;SDS011;23686;49.828;8.702;2023-02-15T06:35:58;20.23;;;13.48;;
37845;SDS011;23686;49.828;8.702;2023-02-15T06:38:24;27.25;;;14.40;;
37845;SDS011;23686;49.828;8.702;2023-02-15T06:40:50;22.20;;;14.07;;
37845;SDS011;23686;49.828;8.702;2023-02-15T06:43:15;21.25;;;13.35;;
37845;SDS011;23686;49.828;8.702;2023-02-15T06:45:41;23.42;;;14.30;;
37845;SDS011;23686;49.828;8.702;2023-02-15T06:48:07;24.90;;;14.45;;
37845;SDS011;23686;49.828;8.702;2023-02-15T06:50:33;23.67;;;14.07;;
37845;SDS011;23686;49.828;8.702;2023-02-15T06:52:59;23.77;;;14.30;;
37845;SDS011;23686;49.828;8.702;2023-02-15T06:55:25;24.70;;;14.90;;
37845;SDS011;23686;49.828;8.702;2023-02-15T06:57:50;25.48;;;15.20;;
37845;SDS011;23686;49.828;8.702;2023-02-15T07:00:16;25.70;;;15.00;;
37845;SDS011;23686;49.828;8.702;2023-02-15T07:02:43;28.27;;;15.05;;
37845;SDS011;23686;49.828;8.702;2023-02-15T07:05:09;28.50;;;15.75;;
37845;SDS011;23686;49.828;8.702;2023-02-15T07:07:35;29.75;;;17.25;;
37845;SDS011;23686;49.828;8.702;2023-02-15T07:10:00;34.60;;;17.52;;
37845;SDS011;23686;49.828;8.702;2023-02-15T07:12:26;29.25;;;15.77;;
37845;SDS011;23686;49.828;8.702;2023-02-15T07:15:08;36.13;;;19.80;;
37845;SDS011;23686;49.828;8.702;2023-02-15T07:17:34;37.72;;;21.70;;
37845;SDS011;23686;49.828;8.702;2023-02-15T07:20:01;34.15;;;17.85;;
37845;SDS011;23686;49.828;8.702;2023-02-15T07:22:28;31.53;;;16.77;;
37845;SDS011;23686;49.828;8.702;2023-02-15T07:24:54;41.30;;;18.02;;
37845;SDS011;23686;49.828;8.702;2023-02-15T07:27:19;32.20;;;18.17;;
37845;SDS011;23686;49.828;8.702;2023-02-15T07:29:46;40.67;;;19.02;;
37845;SDS011;23686;49.828;8.702;2023-02-15T07:32:11;34.17;;;18.98;;
37845;SDS011;23686;49.828;8.702;2023-02-15T07:34:37;36.60;;;17.42;;
37845;SDS011;23686;49.828;8.702;2023-02-15T07:37:02;31.92;;;17.50;;
37845;SDS011;23686;49.828;8.702;2023-02-15T07:39:29;35.00;;;17.67;;
37845;SDS011;23686;49.828;8.702;2023-02-15T07:41:54;33.05;;;17.10;;
37845;SDS011;23686;49.828;8.702;2023-02-15T07:44:20;32.22;;;17.63;;
37845;SDS011;23686;49.828;8.702;2023-02-15T07:46:45;33.45;;;17.33;;
37845;SDS011;23686;49.828;8.702;2023-02-15T07:49:11;32.30;;;16.65;;
37845;SDS011;23686;49.828;8.702;2023-02-15T07:51:37;33.80;;;17.85;;
37845;SDS011;23686;49.828;8.702;2023-02-15T07:54:02;33.58;;;17.58;;
37845;SDS011;23686;49.828;8.702;2023-02-15T07:56:28;36.58;;;18.95;;
37845;SDS011;23686;49.828;8.702;2023-02-15T07:58:53;35.83;;;20.08;;
37845;SDS011;23686;49.828;8.702;2023-02-15T08:01:24;39.83;;;20.25;;
37845;SDS011;23686;49.828;8.702;2023-02-15T08:04:00;43.30;;;19.27;;
37845;SDS011;23686;49.828;8.702;2023-02-15T08:06:27;36.38;;;20.15;;
37845;SDS011;23686;49.828;8.702;2023-02-15T08:08:55;37.25;;;19.17;;
37845;SDS011;23686;49.828;8.702;2023-02-15T08:11:25;38.63;;;19.75;;
37845;SDS011;23686;49.828;8.702;2023-02-15T08:16:34;37.80;;;19.80;;
37845;SDS011;23686;49.828;8.702;2023-02-15T08:19:03;37.75;;;18.90;;
37845;SDS011;23686;49.828;8.702;2023-02-15T08:21:30;38.30;;;18.98;;
37845;SDS011;23686;49.828;8.702;2023-02-15T08:23:56;37.90;;;18.55;;
37845;SDS011;23686;49.828;8.702;2023-02-15T08:26:22;38.67;;;19.58;;
37845;SDS011;23686;49.828;8.702;2023-02-15T08:28:49;34.45;;;18.63;;
37845;SDS011;23686;49.828;8.702;2023-02-15T08:31:16;37.38;;;19.65;;
37845;SDS011;23686;49.828;8.702;2023-02-15T08:33:42;35.42;;;17.45;;
37845;SDS011;23686;49.828;8.702;2023-02-15T08:36:10;36.50;;;17.80;;
37845;SDS011;23686;49.828;8.702;2023-02-15T08:38:38;35.75;;;18.92;;
37845;SDS011;23686;49.828;8.702;2023-02-15T08:41:15;39.72;;;16.95;;
37845;SDS011;23686;49.828;8.702;2023-02-15T08:43:43;34.60;;;18.48;;
37845;SDS011;23686;49.828;8.702;2023-02-15T08:46:10;35.55;;;17.45;;
37845;SDS011;23686;49.828;8.702;2023-02-15T08:48:36;36.65;;;18.00;;
37845;SDS011;23686;49.828;8.702;2023-02-15T08:51:06;35.65;;;18.27;;
37845;SDS011;23686;49.828;8.702;2023-02-15T08:53:40;37.03;;;17.90;;
37845;SDS011;23686;49.828;8.702;2023-02-15T08:56:07;40.10;;;18.92;;
37845;SDS011;23686;49.828;8.702;2023-02-15T08:58:33;34.30;;;17.63;;
37845;SDS011;23686;49.828;8.702;2023-02-15T09:00:59;36.92;;;18.80;;
37845;SDS011;23686;49.828;8.702;2023-02-15T09:03:27;39.00;;;17.45;;
37845;SDS011;23686;49.828;8.702;2023-02-15T09:06:00;33.10;;;17.33;;
37845;SDS011;23686;49.828;8.702;2023-02-15T09:08:26;32.90;;;16.80;;
37845;SDS011;23686;49.828;8.702;2023-02-15T09:10:52;42.03;;;21.08;;
37845;SDS011;23686;49.828;8.702;2023-02-15T09:13:18;34.00;;;18.95;;
37845;SDS011;23686;49.828;8.702;2023-02-15T09:15:45;33.35;;;16.65;;
37845;SDS011;23686;49.828;8.702;2023-02-15T09:18:11;33.33;;;18.00;;
37845;SDS011;23686;49.828;8.702;2023-02-15T09:20:41;29.10;;;16.70;;
37845;SDS011;23686;49.828;8.702;2023-02-15T09:23:08;32.75;;;17.75;;
37845;SDS011;23686;49.828;8.702;2023-02-15T09:25:33;33.50;;;16.80;;
37845;SDS011;23686;49.828;8.702;2023-02-15T09:27:59;32.55;;;17.33;;
37845;SDS011;23686;49.828;8.702;2023-02-15T09:30:25;38.00;;;17.45;;
37845;SDS011;23686;49.828;8.702;2023-02-15T09:32:50;31.58;;;17.15;;
37845;SDS011;23686;49.828;8.702;2023-02-15T09:35:16;36.45;;;19.35;;
37845;SDS011;23686;49.828;8.702;2023-02-15T09:37:41;34.53;;;18.13;;
37845;SDS011;23686;49.828;8.702;2023-02-15T09:40:07;34.65;;;18.40;;
37845;SDS011;23686;49.828;8.702;2023-02-15T10:25:41;45.97;;;24.13;;
37845;SDS011;23686;49.828;8.702;2023-02-15T10:28:36;47.53;;;24.40;;
37845;SDS011;23686;49.828;8.702;2023-02-15T10:31:15;48.28;;;24.70;;
37845;SDS011;23686;49.828;8.702;2023-02-15T10:50:49;39.08;;;19.92;;
37845;SDS011;23686;49.828;8.702;2023-02-15T10:53:30;35.67;;;19.23;;
37845;SDS011;23686;49.828;8.702;2023-02-15T10:56:25;30.80;;;17.67;;
37845;SDS011;23686;49.828;8.702;2023-02-15T11:07:35;31.45;;;18.80;;
37845;SDS011;23686;49.828;8.702;2023-02-15T11:12:57;37.88;;;19.80;;
37845;SDS011;23686;49.828;8.702;2023-02-15T11:18:14;36.40;;;20.90;;
37845;SDS011;23686;49.828;8.702;2023-02-15T11:20:52;37.53;;;21.58;;
37845;SDS011;23686;49.828;8.702;2023-02-15T11:23:32;35.55;;;21.38;;
37845;SDS011;23686;49.828;8.702;2023-02-15T11:26:04;35.15;;;20.15;;
37845;SDS011;23686;49.828;8.702;2023-02-15T11:28:39;38.83;;;22.63;;
37845;SDS011;23686;49.828;8.702;2023-02-15T11:31:15;38.42;;;22.48;;
37845;SDS011;23686;49.828;8.702;2023-02-15T11:33:51;41.72;;;22.63;;
37845;SDS011;23686;49.828;8.702;2023-02-15T11:36:24;40.10;;;21.58;;
37845;SDS011;23686;49.828;8.702;2023-02-15T11:39:01;44.80;;;23.05;;
37845;SDS011;23686;49.828;8.702;2023-02-15T11:41:34;42.75;;;23.00;;
37845;SDS011;23686;49.828;8.702;2023-02-15T11:46:33;39.03;;;20.75;;
37845;SDS011;23686;49.828;8.702;2023-02-15T11:48:59;43.45;;;23.67;;
37845;SDS011;23686;49.828;8.702;2023-02-15T11:51:24;47.00;;;24.08;;
37845;SDS011;23686;49.828;8.702;2023-02-15T11:53:53;37.75;;;23.08;;
37845;SDS011;23686;49.828;8.702;2023-02-15T11:56:21;37.53;;;21.08;;
37845;SDS011;23686;49.828;8.702;2023-02-15T11:59:05;36.97;;;21.45;;
37845;SDS011;23686;49.828;8.702;2023-02-15T12:01:38;34.30;;;20.15;;
37845;SDS011;23686;49.828;8.702;2023-02-15T12:04:10;37.13;;;21.45;;
37845;SDS011;23686;49.828;8.702;2023-02-15T12:06:44;32.67;;;20.08;;
37845;SDS011;23686;49.828;8.702;2023-02-15T12:14:51;31.65;;;19.67;;
37845;SDS011;23686;49.828;8.702;2023-02-15T12:20:04;35.55;;;20.10;;
37845;SDS011;23686;49.828;8.702;2023-02-15T12:23:25;36.38;;;21.25;;
37845;SDS011;23686;49.828;8.702;2023-02-15T12:25:49;37.38;;;20.80;;
37845;SDS011;23686;49.828;8.702;2023-02-15T12:34:20;35.47;;;20.25;;
37845;SDS011;23686;49.828;8.702;2023-02-15T12:36:49;37.00;;;20.30;;
37845;SDS011;23686;49.828;8.702;2023-02-15T12:39:22;35.40;;;21.00;;
37845;SDS011;23686;49.828;8.702;2023-02-15T12:46:56;39.22;;;21.77;;
37845;SDS011;23686;49.828;8.702;2023-02-15T12:49:23;38.10;;;21.67;;
37845;SDS011;23686;49.828;8.702;2023-02-15T12:51:50;35.83;;;22.85;;
37845;SDS011;23686;49.828;8.702;2023-02-15T12:56:49;38.55;;;22.30;;
37845;SDS011;23686;49.828;8.702;2023-02-15T12:59:15;35.80;;;21.10;;
37845;SDS011;23686;49.828;8.702;2023-02-15T13:01:42;39.58;;;23.42;;
37845;SDS011;23686;49.828;8.702;2023-02-15T13:04:26;39.53;;;24.42;;
37845;SDS011;23686;49.828;8.702;2023-02-15T13:06:57;36.72;;;21.70;;
37845;SDS011;23686;49.828;8.702;2023-02-15T13:09:35;39.42;;;23.40;;
37845;SDS011;23686;49.828;8.702;2023-02-15T13:12:23;43.00;;;25.05;;
37845;SDS011;23686;49.828;8.702;2023-02-15T13:14:55;48.92;;;28.85;;
37845;SDS011;23686;49.828;8.702;2023-02-15T13:17:26;41.90;;;24.23;;
37845;SDS011;23686;49.828;8.702;2023-02-15T13:19:57;42.13;;;24.38;;
37845;SDS011;23686;49.828;8.702;2023-02-15T13:25:09;37.30;;;23.17;;
37845;SDS011;23686;49.828;8.702;2023-02-15T13:27:42;40.28;;;23.02;;
37845;SDS011;23686;49.828;8.702;2023-02-15T13:30:31;40.47;;;23.77;;
37845;SDS011;23686;49.828;8.702;2023-02-15T13:33:08;37.22;;;22.10;;
37845;SDS011;23686;49.828;8.702;2023-02-15T13:44:23;38.97;;;25.10;;
37845;SDS011;23686;49.828;8.702;2023-02-15T13:52:46;43.67;;;25.55;;
37845;SDS011;23686;49.828;8.702;2023-02-15T14:01:06;43.63;;;26.02;;
37845;SDS011;23686;49.828;8.702;2023-02-15T14:04:09;48.85;;;28.65;;
37845;SDS011;23686;49.828;8.702;2023-02-15T14:09:52;49.80;;;28.40;;
37845;SDS011;23686;49.828;8.702;2023-02-15T14:20:41;50.03;;;28.27;;
37845;SDS011;23686;49.828;8.702;2023-02-15T14:29:19;51.55;;;29.67;;
37845;SDS011;23686;49.828;8.702;2023-02-15T14:31:49;52.45;;;31.30;;
37845;SDS011;23686;49.828;8.702;2023-02-15T14:34:27;47.15;;;28.15;;
37845;SDS011;23686;49.828;8.702;2023-02-15T14:36:59;50.72;;;30.58;;
37845;SDS011;23686;49.828;8.702;2023-02-15T14:39:37;52.85;;;31.48;;
37845;SDS011;23686;49.828;8.702;2023-02-15T14:42:54;53.47;;;29.50;;
37845;SDS011;23686;49.828;8.702;2023-02-15T14:48:20;54.92;;;30.77;;
37845;SDS011;23686;49.828;8.702;2023-02-15T14:50:58;48.03;;;29.35;;
37845;SDS011;23686;49.828;8.702;2023-02-15T15:01:14;48.55;;;28.38;;
37845;SDS011;23686;49.828;8.702;2023-02-15T15:03:43;52.88;;;29.42;;
37845;SDS011;23686;49.828;8.702;2023-02-15T15:06:26;51.92;;;29.60;;
37845;SDS011;23686;49.828;8.702;2023-02-15T15:08:55;50.28;;;29.58;;
37845;SDS011;23686;49.828;8.702;2023-02-15T15:13:56;51.58;;;29.60;;
37845;SDS011;23686;49.828;8.702;2023-02-15T15:35:26;50.90;;;28.80;;
37845;SDS011;23686;49.828;8.702;2023-02-15T15:40:59;51.22;;;29.33;;
37845;SDS011;23686;49.828;8.702;2023-02-15T15:44:30;46.53;;;27.40;;
37845;SDS011;23686;49.828;8.702;2023-02-15T15:49:33;49.47;;;28.05;;
37845;SDS011;23686;49.828;8.702;2023-02-15T15:52:02;50.08;;;28.92;;
37845;SDS011;23686;49.828;8.702;2023-02-15T15:54:37;50.42;;;28.65;;
37845;SDS011;23686;49.828;8.702;2023-02-15T15:57:05;48.10;;;28.20;;
37845;SDS011;23686;49.828;8.702;2023-02-15T15:59:37;52.00;;;29.55;;
37845;SDS011;23686;49.828;8.702;2023-02-15T16:02:12;52.75;;;30.50;;
37845;SDS011;23686;49.828;8.702;2023-02-15T16:04:43;53.65;;;30.38;;
37845;SDS011;23686;49.828;8.702;2023-02-15T16:07:27;49.65;;;30.08;;
37845;SDS011;23686;49.828;8.702;2023-02-15T16:09:57;49.67;;;28.00;;
37845;SDS011;23686;49.828;8.702;2023-02-15T16:12:31;46.67;;;29.40;;
37845;SDS011;23686;49.828;8.702;2023-02-15T16:15:02;53.83;;;30.23;;
37845;SDS011;23686;49.828;8.702;2023-02-15T16:17:38;53.47;;;30.45;;
37845;SDS011;23686;49.828;8.702;2023-02-15T16:20:29;57.38;;;31.00;;
37845;SDS011;23686;49.828;8.702;2023-02-15T16:23:10;56.22;;;34.53;;
37845;SDS011;23686;49.828;8.702;2023-02-15T16:28:48;56.55;;;31.73;;
37845;SDS011;23686;49.828;8.702;2023-02-15T16:31:16;52.38;;;30.10;;
37845;SDS011;23686;49.828;8.702;2023-02-15T16:33:42;52.35;;;28.77;;
37845;SDS011;23686;49.828;8.702;2023-02-15T16:36:30;57.45;;;32.28;;
37845;SDS011;23686;49.828;8.702;2023-02-15T16:41:28;51.90;;;29.88;;
37845;SDS011;23686;49.828;8.702;2023-02-15T16:43:55;55.00;;;31.30;;
37845;SDS011;23686;49.828;8.702;2023-02-15T16:46:25;54.80;;;31.25;;
37845;SDS011;23686;49.828;8.702;2023-02-15T16:48:57;51.47;;;29.85;;
37845;SDS011;23686;49.828;8.702;2023-02-15T16:51:30;59.97;;;31.65;;
37845;SDS011;23686;49.828;8.702;2023-02-15T16:54:00;61.83;;;32.30;;
37845;SDS011;23686;49.828;8.702;2023-02-15T16:56:31;57.88;;;31.67;;
37845;SDS011;23686;49.828;8.702;2023-02-15T16:58:58;57.15;;;30.23;;
37845;SDS011;23686;49.828;8.702;2023-02-15T17:01:26;54.63;;;31.98;;
37845;SDS011;23686;49.828;8.702;2023-02-15T17:06:57;59.88;;;31.88;;
37845;SDS011;23686;49.828;8.702;2023-02-15T17:09:24;52.38;;;30.42;;
37845;SDS011;23686;49.828;8.702;2023-02-15T17:11:50;57.40;;;32.55;;
37845;SDS011;23686;49.828;8.702;2023-02-15T17:14:20;57.08;;;32.47;;
37845;SDS011;23686;49.828;8.702;2023-02-15T17:16:47;56.42;;;31.80;;
37845;SDS011;23686;49.828;8.702;2023-02-15T17:21:56;54.95;;;31.70;;
37845;SDS011;23686;49.828;8.702;2023-02-15T17:27:14;56.22;;;30.60;;
37845;SDS011;23686;49.828;8.702;2023-02-15T17:29:47;58.42;;;33.83;;
37845;SDS011;23686;49.828;8.702;2023-02-15T17:32:20;58.33;;;32.85;;
37845;SDS011;23686;49.828;8.702;2023-02-15T17:34:58;53.78;;;30.42;;
37845;SDS011;23686;49.828;8.702;2023-02-15T17:37:32;51.40;;;29.98;;
37845;SDS011;23686;49.828;8.702;2023-02-15T17:42:43;59.25;;;31.67;;
37845;SDS011;23686;49.828;8.702;2023-02-15T17:45:08;59.92;;;33.45;;
37845;SDS011;23686;49.828;8.702;2023-02-15T17:47:34;63.20;;;32.97;;
37845;SDS011;23686;49.828;8.702;2023-02-15T17:50:01;64.72;;;34.08;;
37845;SDS011;23686;49.828;8.702;2023-02-15T17:52:28;64.38;;;34.17;;
37845;SDS011;23686;49.828;8.702;2023-02-15T17:54:55;63.10;;;34.42;;
37845;SDS011;23686;49.828;8.702;2023-02-15T17:57:39;58.67;;;32.55;;
37845;SDS011;23686;49.828;8.702;2023-02-15T18:00:05;67.25;;;33.88;;
37845;SDS011;23686;49.828;8.702;2023-02-15T18:02:50;61.83;;;32.78;;
37845;SDS011;23686;49.828;8.702;2023-02-15T18:05:35;61.20;;;34.63;;
37845;SDS011;23686;49.828;8.702;2023-02-15T18:08:22;71.80;;;36.15;;
37845;SDS011;23686;49.828;8.702;2023-02-15T18:11:10;64.78;;;34.40;;
37845;SDS011;23686;49.828;8.702;2023-02-15T18:13:54;64.10;;;34.10;;
37845;SDS011;23686;49.828;8.702;2023-02-15T18:16:25;65.95;;;36.20;;
37845;SDS011;23686;49.828;8.702;2023-02-15T18:18:54;64.47;;;34.85;;
37845;SDS011;23686;49.828;8.702;2023-02-15T18:21:20;67.07;;;36.30;;
37845;SDS011;23686;49.828;8.702;2023-02-15T18:23:47;64.80;;;35.42;;
37845;SDS011;23686;49.828;8.702;2023-02-15T18:26:16;63.17;;;34.17;;
37845;SDS011;23686;49.828;8.702;2023-02-15T18:28:47;65.60;;;35.20;;
37845;SDS011;23686;49.828;8.702;2023-02-15T18:31:13;62.58;;;34.63;;
37845;SDS011;23686;49.828;8.702;2023-02-15T18:33:43;73.43;;;38.15;;